createdAt,value
2019-03-17T00:02:04.688Z,4.78
2019-03-17T00:04:37.463Z,4.41
2019-03-17T00:07:10.411Z,4.43
2019-03-17T00:09:43.318Z,4.79
2019-03-17T00:12:16.269Z,4.72
2019-03-17T00:14:49.163Z,4.42
2019-03-17T00:17:24.971Z,4.76
2019-03-17T00:19:56.451Z,4.57
2019-03-17T00:22:29.348Z,5.11
2019-03-17T00:25:09.288Z,5.62
2019-03-17T00:27:36.659Z,5.74
2019-03-17T00:30:10.317Z,5.46
2019-03-17T00:32:43.197Z,5.23
2019-03-17T00:35:16.087Z,4.76
2019-03-17T00:37:49.013Z,4.30
2019-03-17T00:40:21.859Z,4.00
2019-03-17T00:42:54.732Z,3.91
2019-03-17T00:45:27.519Z,3.59
2019-03-17T00:48:00.426Z,3.61
2019-03-17T00:50:33.363Z,3.47
2019-03-17T00:53:06.372Z,3.62
2019-03-17T00:55:38.455Z,4.21
2019-03-17T00:58:11.492Z,4.33
2019-03-17T01:00:44.482Z,3.67
2019-03-17T01:03:17.419Z,3.51
2019-03-17T01:05:49.806Z,3.54
2019-03-17T01:08:22.620Z,3.70
2019-03-17T01:10:54.830Z,3.76
2019-03-17T01:13:27.655Z,4.32
2019-03-17T01:16:00.714Z,4.48
2019-03-17T01:18:33.732Z,4.10
2019-03-17T01:21:06.616Z,3.85
2019-03-17T01:23:39.594Z,3.83
2019-03-17T01:26:12.396Z,4.06
2019-03-17T01:28:45.288Z,4.75
2019-03-17T01:31:18.213Z,4.36
2019-03-17T01:33:51.032Z,4.79
2019-03-17T01:36:23.958Z,5.14
2019-03-17T01:38:56.849Z,5.04
2019-03-17T01:41:29.634Z,4.98
2019-03-17T01:44:02.414Z,4.32
2019-03-17T01:46:34.446Z,4.22
2019-03-17T01:49:06.908Z,4.09
2019-03-17T01:51:39.752Z,4.30
2019-03-17T01:54:12.591Z,4.11
2019-03-17T01:56:47.312Z,4.68
2019-03-17T01:59:20.153Z,4.82
2019-03-17T02:01:53.051Z,4.78
2019-03-17T02:04:25.526Z,4.83
2019-03-17T02:06:58.397Z,4.46
2019-03-17T02:09:31.188Z,3.98
2019-03-17T02:12:03.946Z,4.22
2019-03-17T02:14:36.792Z,4.72
2019-03-17T02:17:09.627Z,4.69
2019-03-17T02:19:42.535Z,5.04
2019-03-17T02:22:15.469Z,5.33
2019-03-17T02:24:48.517Z,5.27
2019-03-17T02:27:21.479Z,4.82
2019-03-17T02:29:54.536Z,4.67
2019-03-17T02:32:27.349Z,4.58
2019-03-17T02:35:00.495Z,4.47
2019-03-17T02:37:33.502Z,4.45
2019-03-17T02:40:06.699Z,4.77
2019-03-17T02:42:39.756Z,4.73
2019-03-17T02:45:13.226Z,4.72
2019-03-17T02:47:46.167Z,4.29
2019-03-17T02:50:19.035Z,4.09
2019-03-17T02:52:51.879Z,4.07
2019-03-17T02:55:24.737Z,4.28
2019-03-17T02:57:57.807Z,4.51
2019-03-17T03:00:30.801Z,4.98
2019-03-17T03:03:03.752Z,5.12
2019-03-17T03:05:36.636Z,4.77
2019-03-17T03:08:09.564Z,4.48
2019-03-17T03:10:42.452Z,4.44
2019-03-17T03:13:15.316Z,4.87
2019-03-17T03:15:48.641Z,5.31
2019-03-17T03:18:21.603Z,4.88
2019-03-17T03:20:54.634Z,4.48
2019-03-17T03:23:27.641Z,4.56
2019-03-17T03:26:00.639Z,4.67
2019-03-17T03:28:33.582Z,4.88
2019-03-17T03:31:06.538Z,5.58
2019-03-17T03:33:39.473Z,6.16
2019-03-17T03:36:12.392Z,6.19
2019-03-17T03:38:45.374Z,6.11
2019-03-17T03:41:18.398Z,4.81
2019-03-17T03:43:51.427Z,4.43
2019-03-17T03:46:25.305Z,4.37
2019-03-17T03:48:58.215Z,4.30
2019-03-17T03:51:31.100Z,4.50
2019-03-17T03:54:04.059Z,4.77
2019-03-17T03:56:37.026Z,4.68
2019-03-17T03:59:09.911Z,5.06
2019-03-17T04:01:42.921Z,5.11
2019-03-17T04:04:15.756Z,5.15
2019-03-17T04:06:48.562Z,5.06
2019-03-17T04:09:21.508Z,4.77
2019-03-17T04:11:54.498Z,4.42
2019-03-17T04:14:32.682Z,4.14
2019-03-17T04:17:05.498Z,4.60
2019-03-17T04:19:38.271Z,5.06
2019-03-17T04:22:11.022Z,4.85
2019-03-17T04:24:43.778Z,4.35
2019-03-17T04:27:16.567Z,4.06
2019-03-17T04:29:49.403Z,4.33
2019-03-17T04:32:22.301Z,4.22
2019-03-17T04:34:55.268Z,3.85
2019-03-17T04:37:28.102Z,3.84
2019-03-17T04:40:01.004Z,3.83
2019-03-17T04:42:33.754Z,4.01
2019-03-17T04:45:06.938Z,4.37
2019-03-17T04:47:39.732Z,4.90
2019-03-17T04:50:12.724Z,4.23
2019-03-17T04:52:45.569Z,3.94
2019-03-17T04:55:18.462Z,3.98
2019-03-17T04:57:51.280Z,4.03
2019-03-17T05:00:24.188Z,4.10
2019-03-17T05:02:57.263Z,4.22
2019-03-17T05:05:30.228Z,4.95
2019-03-17T05:08:03.155Z,5.16
2019-03-17T05:10:36.073Z,4.92
2019-03-17T05:13:08.933Z,4.62
2019-03-17T05:15:41.303Z,4.61
2019-03-17T05:18:14.208Z,4.65
2019-03-17T05:20:47.172Z,4.68
2019-03-17T05:23:19.310Z,4.44
2019-03-17T05:25:52.231Z,4.34
2019-03-17T05:28:25.142Z,4.07
2019-03-17T05:30:57.993Z,4.35
2019-03-17T05:33:30.221Z,4.60
2019-03-17T05:36:03.062Z,4.05
2019-03-17T05:38:35.873Z,3.77
2019-03-17T05:41:08.820Z,4.43
2019-03-17T05:43:41.765Z,4.67
2019-03-17T05:46:14.581Z,4.26
2019-03-17T05:48:47.350Z,4.14
2019-03-17T05:51:20.233Z,3.87
2019-03-17T05:53:53.129Z,3.54
2019-03-17T05:56:25.577Z,3.53
2019-03-17T05:58:58.474Z,3.76
2019-03-17T06:01:31.330Z,3.92
2019-03-17T06:04:04.297Z,4.06
2019-03-17T06:06:37.168Z,3.94
2019-03-17T06:09:10.073Z,3.59
2019-03-17T06:11:43.065Z,3.86
2019-03-17T06:14:16.085Z,4.19
2019-03-17T06:16:49.037Z,4.25
2019-03-17T06:19:22.054Z,4.28
2019-03-17T06:21:55.023Z,4.13
2019-03-17T06:24:27.983Z,4.86
2019-03-17T06:27:00.898Z,4.31
2019-03-17T06:29:33.815Z,4.07
2019-03-17T06:32:06.867Z,4.25
2019-03-17T06:34:39.727Z,4.69
2019-03-17T06:37:12.765Z,4.96
2019-03-17T06:39:45.654Z,5.21
2019-03-17T06:42:18.507Z,5.46
2019-03-17T06:44:51.287Z,5.86
2019-03-17T06:47:24.174Z,6.50
2019-03-17T06:49:57.226Z,7.02
2019-03-17T06:52:30.148Z,7.33
2019-03-17T06:55:03.068Z,7.51
2019-03-17T06:57:36.000Z,8.47
2019-03-17T07:00:09.467Z,9.69
2019-03-17T07:02:42.425Z,9.95
2019-03-17T07:05:15.370Z,9.32
2019-03-17T07:07:48.406Z,9.62
2019-03-17T07:10:21.308Z,9.78
2019-03-17T07:12:54.186Z,10.40
2019-03-17T07:15:27.194Z,10.89
2019-03-17T07:18:00.269Z,11.18
2019-03-17T07:20:33.315Z,11.40
2019-03-17T07:23:06.374Z,11.64
2019-03-17T07:25:39.331Z,11.88
2019-03-17T07:28:12.465Z,11.96
2019-03-17T07:30:45.447Z,12.29
2019-03-17T07:33:18.495Z,12.34
2019-03-17T07:35:51.459Z,12.46
2019-03-17T07:38:24.305Z,12.66
2019-03-17T07:40:57.370Z,12.78
2019-03-17T07:43:30.252Z,12.83
2019-03-17T07:46:03.199Z,13.31
2019-03-17T07:48:36.100Z,13.74
2019-03-17T07:51:09.267Z,13.77
2019-03-17T07:53:42.156Z,13.85
2019-03-17T07:56:15.056Z,14.22
2019-03-17T07:58:47.938Z,14.67
2019-03-17T08:01:20.867Z,15.01
2019-03-17T08:03:53.711Z,15.24
2019-03-17T08:06:26.092Z,15.53
2019-03-17T08:08:58.955Z,15.80
2019-03-17T08:11:32.930Z,16.37
2019-03-17T08:14:05.590Z,16.65
2019-03-17T08:16:37.761Z,16.00
2019-03-17T08:19:10.857Z,16.30
2019-03-17T08:21:43.890Z,17.13
2019-03-17T08:24:16.938Z,17.78
2019-03-17T08:26:50.824Z,17.89
2019-03-17T08:29:23.815Z,18.32
2019-03-17T08:31:56.712Z,17.98
2019-03-17T08:34:30.066Z,18.08
2019-03-17T08:37:02.940Z,18.28
2019-03-17T08:39:36.947Z,18.02
2019-03-17T08:42:10.071Z,17.62
2019-03-17T08:44:43.137Z,17.64
2019-03-17T08:47:16.204Z,16.75
2019-03-17T08:49:49.064Z,15.78
2019-03-17T08:52:24.877Z,15.01
2019-03-17T08:54:57.893Z,14.69
2019-03-17T08:57:30.923Z,14.85
2019-03-17T09:00:04.422Z,14.58
2019-03-17T09:02:40.498Z,14.80
2019-03-17T09:05:13.589Z,15.50
2019-03-17T09:07:46.503Z,16.36
2019-03-17T09:10:19.385Z,16.54
2019-03-17T09:12:52.264Z,16.09
2019-03-17T09:15:25.233Z,15.87
2019-03-17T09:17:58.765Z,16.99
2019-03-17T09:20:31.707Z,17.29
2019-03-17T09:23:04.732Z,17.34
2019-03-17T09:25:37.735Z,16.73
2019-03-17T09:28:10.789Z,16.72
2019-03-17T09:30:43.839Z,17.62
2019-03-17T09:33:16.820Z,16.64
2019-03-17T09:35:49.760Z,15.92
2019-03-17T09:38:22.579Z,16.39
2019-03-17T09:40:55.511Z,17.16
2019-03-17T09:43:28.474Z,16.20
2019-03-17T09:46:01.387Z,15.73
2019-03-17T09:48:35.532Z,15.60
2019-03-17T09:51:08.584Z,16.79
2019-03-17T09:53:41.590Z,16.52
2019-03-17T09:56:14.658Z,17.22
2019-03-17T09:58:47.653Z,17.68
2019-03-17T10:01:19.844Z,17.34
2019-03-17T10:03:52.735Z,17.19
2019-03-17T10:06:25.644Z,18.48
2019-03-17T10:09:00.361Z,17.89
2019-03-17T10:11:33.586Z,16.25
2019-03-17T10:14:06.840Z,15.46
2019-03-17T10:16:39.830Z,15.03
2019-03-17T10:19:12.914Z,14.95
2019-03-17T10:21:46.020Z,15.14
2019-03-17T10:24:19.141Z,14.88
2019-03-17T10:26:52.168Z,15.04
2019-03-17T10:29:25.301Z,15.11
2019-03-17T10:31:57.553Z,15.20
2019-03-17T10:34:30.494Z,15.99
2019-03-17T10:37:05.076Z,16.30
2019-03-17T10:39:38.895Z,16.15
2019-03-17T10:42:11.802Z,15.84
2019-03-17T10:44:44.752Z,15.35
2019-03-17T10:47:17.740Z,14.73
2019-03-17T10:49:50.740Z,14.80
2019-03-17T10:52:23.650Z,14.55
2019-03-17T10:54:56.585Z,14.64
2019-03-17T10:57:29.534Z,15.15
2019-03-17T11:00:02.536Z,15.47
2019-03-17T11:02:35.507Z,16.21
2019-03-17T11:05:08.942Z,16.20
2019-03-17T11:07:41.906Z,16.74
2019-03-17T11:10:15.256Z,15.64
2019-03-17T11:12:48.180Z,14.92
2019-03-17T11:15:21.110Z,14.65
2019-03-17T11:17:54.132Z,14.54
2019-03-17T11:20:27.164Z,14.41
2019-03-17T11:23:00.162Z,14.25
2019-03-17T11:25:33.119Z,14.12
2019-03-17T11:28:06.134Z,14.03
2019-03-17T11:30:38.734Z,13.99
2019-03-17T11:33:11.827Z,14.04
2019-03-17T11:35:44.933Z,14.01
2019-03-17T11:38:17.948Z,14.09
2019-03-17T11:40:50.976Z,14.22
2019-03-17T11:43:23.905Z,14.57
2019-03-17T11:45:56.909Z,14.92
2019-03-17T11:48:29.837Z,15.36
2019-03-17T11:51:02.995Z,15.43
2019-03-17T11:53:35.926Z,15.51
2019-03-17T11:56:09.034Z,16.11
2019-03-17T11:58:41.904Z,17.49
2019-03-17T12:01:17.795Z,18.32
2019-03-17T12:03:49.343Z,17.98
2019-03-17T12:06:22.359Z,16.91
2019-03-17T12:08:55.601Z,17.51
2019-03-17T12:11:27.832Z,17.36
2019-03-17T12:14:00.697Z,16.40
2019-03-17T12:16:33.665Z,16.52
2019-03-17T12:19:06.508Z,17.47
2019-03-17T12:21:39.446Z,17.34
2019-03-17T12:24:12.447Z,17.73
2019-03-17T12:26:47.552Z,17.23
2019-03-17T12:29:23.491Z,16.84
2019-03-17T12:31:56.412Z,15.82
2019-03-17T12:34:29.320Z,15.43
2019-03-17T12:37:04.323Z,14.67
2019-03-17T12:39:37.327Z,14.26
2019-03-17T12:42:10.378Z,13.91
2019-03-17T12:44:43.413Z,13.87
2019-03-17T12:47:16.290Z,13.83
2019-03-17T12:49:49.338Z,14.05
2019-03-17T12:52:22.341Z,13.98
2019-03-17T12:54:55.307Z,13.95
2019-03-17T12:57:28.314Z,13.68
2019-03-17T13:00:01.340Z,14.98
2019-03-17T13:02:34.217Z,14.90
2019-03-17T13:05:07.476Z,14.96
2019-03-17T13:07:40.466Z,15.79
2019-03-17T13:10:16.438Z,15.07
2019-03-17T13:12:49.851Z,14.98
2019-03-17T13:15:22.821Z,14.70
2019-03-17T13:17:55.886Z,15.61
2019-03-17T13:20:29.934Z,16.54
2019-03-17T13:23:03.235Z,15.46
2019-03-17T13:25:36.046Z,15.68
2019-03-17T13:28:09.154Z,14.93
2019-03-17T13:30:42.149Z,13.97
2019-03-17T13:33:17.577Z,13.18
2019-03-17T13:35:50.605Z,12.89
2019-03-17T13:38:23.625Z,12.56
2019-03-17T13:40:56.582Z,12.28
2019-03-17T13:43:29.507Z,11.98
2019-03-17T13:46:02.377Z,11.88
2019-03-17T13:48:35.474Z,11.67
2019-03-17T13:51:08.427Z,11.47
2019-03-17T13:53:41.359Z,11.25
2019-03-17T13:56:14.472Z,11.07
2019-03-17T13:58:47.412Z,10.92
2019-03-17T14:01:20.473Z,10.58
2019-03-17T14:03:54.940Z,10.32
2019-03-17T14:06:28.141Z,10.12
2019-03-17T14:09:01.385Z,9.53
2019-03-17T14:11:34.432Z,9.18
2019-03-17T14:14:07.374Z,8.81
2019-03-17T14:16:40.139Z,7.96
2019-03-17T14:19:12.882Z,7.58
2019-03-17T14:21:45.765Z,7.24
2019-03-17T14:24:18.540Z,7.02
2019-03-17T14:26:51.402Z,6.84
2019-03-17T14:29:24.296Z,6.53
2019-03-17T14:31:57.561Z,6.38
2019-03-17T14:34:30.475Z,6.19
2019-03-17T14:37:03.381Z,5.95
2019-03-17T14:39:36.386Z,5.85
2019-03-17T14:42:09.243Z,5.66
2019-03-17T14:44:41.979Z,5.58
2019-03-17T14:47:14.886Z,5.40
2019-03-17T14:49:50.539Z,5.21
2019-03-17T14:52:23.533Z,5.16
2019-03-17T14:54:56.297Z,4.93
2019-03-17T14:57:29.251Z,4.69
2019-03-17T15:00:02.088Z,4.70
2019-03-17T15:02:35.007Z,4.66
2019-03-17T15:05:08.575Z,4.65
2019-03-17T15:07:41.491Z,4.59
2019-03-17T15:10:16.904Z,4.61
2019-03-17T15:12:50.009Z,4.57
2019-03-17T15:15:23.179Z,4.65
2019-03-17T15:17:56.077Z,4.57
2019-03-17T15:20:28.458Z,4.54
2019-03-17T15:23:01.310Z,4.29
2019-03-17T15:25:37.071Z,4.19
2019-03-17T15:28:10.033Z,4.13
2019-03-17T15:30:42.970Z,4.06
2019-03-17T15:33:15.989Z,3.95
2019-03-17T15:35:48.826Z,3.82
2019-03-17T15:38:21.609Z,3.68
2019-03-17T15:40:54.659Z,3.71
2019-03-17T15:43:27.619Z,3.74
2019-03-17T15:46:00.511Z,3.65
2019-03-17T15:48:33.474Z,3.66
2019-03-17T15:51:19.176Z,3.67
2019-03-17T15:53:42.723Z,3.62
2019-03-17T15:56:15.033Z,3.50
2019-03-17T15:58:47.961Z,3.47
2019-03-17T16:01:20.533Z,3.39
2019-03-17T16:03:53.673Z,3.33
2019-03-17T16:06:26.692Z,3.24
2019-03-17T16:08:59.467Z,3.17
2019-03-17T16:11:32.393Z,3.06
2019-03-17T16:14:05.811Z,2.99
2019-03-17T16:16:38.903Z,2.98
2019-03-17T16:19:12.774Z,3.03
2019-03-17T16:21:45.687Z,3.06
2019-03-17T16:24:18.677Z,3.12
2019-03-17T16:26:52.627Z,3.16
2019-03-17T16:29:25.677Z,3.19
2019-03-17T16:31:58.700Z,3.25
2019-03-17T16:34:30.867Z,3.33
2019-03-17T16:37:03.758Z,3.36
2019-03-17T16:39:36.878Z,3.38
2019-03-17T16:42:09.417Z,3.38
2019-03-17T16:44:42.348Z,3.38
2019-03-17T16:47:15.017Z,3.38
2019-03-17T16:49:48.283Z,3.34
2019-03-17T16:52:21.260Z,3.43
2019-03-17T16:54:54.332Z,3.41
2019-03-17T16:57:27.652Z,3.41
2019-03-17T17:00:00.527Z,3.33
2019-03-17T17:02:33.950Z,3.38
2019-03-17T17:05:08.980Z,3.34
2019-03-17T17:07:42.044Z,3.28
2019-03-17T17:10:16.913Z,3.31
2019-03-17T17:12:50.089Z,3.36
2019-03-17T17:15:24.653Z,3.31
2019-03-17T17:17:57.578Z,3.28
2019-03-17T17:20:30.911Z,3.33
2019-03-17T17:23:03.828Z,3.31
2019-03-17T17:25:36.756Z,3.28
2019-03-17T17:28:09.767Z,3.25
2019-03-17T17:30:42.715Z,3.16
2019-03-17T17:33:15.323Z,3.19
2019-03-17T17:35:48.273Z,3.22
2019-03-17T17:38:21.202Z,3.22
2019-03-17T17:40:54.215Z,3.23
2019-03-17T17:43:27.305Z,3.21
2019-03-17T17:46:00.649Z,3.18
2019-03-17T17:48:33.816Z,3.13
2019-03-17T17:51:06.785Z,3.12
2019-03-17T17:53:39.907Z,3.07
2019-03-17T17:56:12.935Z,3.02
2019-03-17T17:58:45.920Z,3.01
2019-03-17T18:01:21.102Z,2.99
2019-03-17T18:03:56.371Z,2.99
2019-03-17T18:06:29.221Z,3.02
2019-03-17T18:09:02.127Z,3.01
2019-03-17T18:11:35.303Z,3.05
2019-03-17T18:14:08.267Z,3.12
2019-03-17T18:16:41.830Z,3.18
2019-03-17T18:19:16.443Z,3.23
2019-03-17T18:21:49.576Z,3.18
2019-03-17T18:24:22.519Z,3.25
2019-03-17T18:26:55.413Z,3.31
2019-03-17T18:29:28.378Z,3.15
2019-03-17T18:32:01.339Z,3.09
2019-03-17T18:34:36.656Z,2.95
2019-03-17T18:37:10.107Z,2.92
2019-03-17T18:39:42.910Z,2.98
2019-03-17T18:42:15.942Z,3.04
2019-03-17T18:44:48.947Z,2.98
2019-03-17T18:47:22.065Z,3.01
2019-03-17T18:49:55.476Z,3.00
2019-03-17T18:52:28.315Z,2.96
2019-03-17T18:55:00.816Z,2.91
2019-03-17T18:57:37.404Z,2.89
2019-03-17T19:00:13.853Z,2.91
2019-03-17T19:02:47.047Z,2.93
2019-03-17T19:05:20.580Z,2.86
2019-03-17T19:07:53.621Z,2.82
2019-03-17T19:10:26.533Z,2.81
2019-03-17T19:12:59.458Z,2.83
2019-03-17T19:15:32.305Z,2.82
2019-03-17T19:18:05.189Z,2.89
2019-03-17T19:20:38.104Z,2.92
2019-03-17T19:23:11.135Z,2.93
2019-03-17T19:25:44.243Z,2.94
2019-03-17T19:28:17.152Z,2.96
2019-03-17T19:30:50.178Z,2.92
2019-03-17T19:33:23.085Z,3.07
2019-03-17T19:35:59.295Z,3.01
2019-03-17T19:38:32.188Z,2.97
2019-03-17T19:41:05.201Z,3.00
2019-03-17T19:43:38.168Z,3.04
2019-03-17T19:46:11.341Z,3.05
2019-03-17T19:48:47.419Z,3.03
2019-03-17T19:51:20.321Z,3.07
2019-03-17T19:53:53.275Z,3.08
2019-03-17T19:56:26.284Z,3.05
2019-03-17T19:58:59.221Z,2.98
2019-03-17T20:01:32.258Z,3.01
2019-03-17T20:04:05.382Z,2.99
2019-03-17T20:06:38.413Z,2.97
2019-03-17T20:09:11.987Z,2.95
2019-03-17T20:11:44.556Z,2.98
2019-03-17T20:14:17.967Z,3.00
2019-03-17T20:16:50.926Z,2.95
2019-03-17T20:19:23.030Z,3.03
2019-03-17T20:21:56.067Z,3.03
2019-03-17T20:24:29.148Z,2.99
2019-03-17T20:27:02.079Z,2.85
2019-03-17T20:29:35.023Z,2.89
2019-03-17T20:32:08.223Z,2.82
2019-03-17T20:34:40.586Z,2.76
2019-03-17T20:37:13.458Z,2.54
2019-03-17T20:39:46.611Z,2.39
2019-03-17T20:42:19.585Z,2.26
2019-03-17T20:44:52.573Z,2.17
2019-03-17T20:47:25.674Z,2.13
2019-03-17T20:49:58.761Z,2.07
2019-03-17T20:52:31.687Z,2.05
2019-03-17T20:55:04.879Z,2.05
2019-03-17T20:57:37.721Z,2.02
2019-03-17T21:00:13.225Z,2.00
2019-03-17T21:02:45.770Z,1.87
2019-03-17T21:05:18.713Z,1.73
2019-03-17T21:07:51.215Z,1.68
2019-03-17T21:10:24.160Z,1.62
2019-03-17T21:12:57.378Z,1.53
2019-03-17T21:15:30.368Z,1.37
2019-03-17T21:18:03.234Z,1.10
2019-03-17T21:20:36.137Z,0.97
2019-03-17T21:23:09.142Z,0.93
2019-03-17T21:25:41.986Z,0.88
2019-03-17T21:28:15.141Z,0.82
2019-03-17T21:30:48.103Z,0.73
2019-03-17T21:33:21.091Z,0.61
2019-03-17T21:35:53.992Z,0.51
2019-03-17T21:38:26.949Z,0.46
2019-03-17T23:22:30.123Z,-0.54
2019-03-17T23:25:03.216Z,-0.62
2019-03-17T23:27:36.146Z,-0.57
2019-03-17T23:30:10.082Z,-0.55
2019-03-17T23:32:42.247Z,-0.63
2019-03-17T23:35:15.326Z,-0.70
2019-03-17T23:37:48.259Z,-0.75
2019-03-17T23:40:21.225Z,-0.75
2019-03-17T23:42:54.226Z,-0.78
2019-03-17T23:45:27.093Z,-0.93
2019-03-17T23:48:00.059Z,-0.84
2019-03-17T23:50:32.921Z,-0.87
2019-03-17T23:53:05.129Z,-0.75
2019-03-17T23:55:38.021Z,-0.73
2019-03-17T23:58:11.101Z,-0.80
